createdAt,value
2019-02-14T00:01:55.387Z,19.27
2019-02-14T00:04:23.687Z,19.30
2019-02-14T00:06:51.995Z,18.92
2019-02-14T00:09:20.459Z,17.53
2019-02-14T00:11:48.773Z,19.37
2019-02-14T00:14:17.081Z,17.90
2019-02-14T00:16:45.404Z,18.92
2019-02-14T00:19:13.696Z,19.05
2019-02-14T00:21:42.009Z,19.07
2019-02-14T00:24:10.312Z,17.70
2019-02-14T00:26:38.631Z,17.65
2019-02-14T00:29:06.940Z,20.00
2019-02-14T00:31:35.274Z,19.25
2019-02-14T00:34:03.574Z,19.27
2019-02-14T00:36:31.895Z,21.15
2019-02-14T00:39:00.202Z,21.15
2019-02-14T00:41:28.516Z,19.67
2019-02-14T00:43:57.131Z,19.82
2019-02-14T00:46:25.712Z,19.37
2019-02-14T00:48:54.291Z,18.92
2019-02-14T00:51:22.890Z,17.30
2019-02-14T00:53:51.186Z,17.83
2019-02-14T00:56:19.855Z,17.75
2019-02-14T00:58:48.171Z,17.67
2019-02-14T01:01:16.476Z,15.15
2019-02-14T01:03:44.795Z,16.10
2019-02-14T01:06:13.349Z,15.43
2019-02-14T01:08:41.671Z,15.20
2019-02-14T01:11:09.974Z,15.95
2019-02-14T01:13:38.292Z,15.95
2019-02-14T01:16:06.587Z,15.43
2019-02-14T01:18:34.904Z,16.35
2019-02-14T01:21:03.524Z,15.50
2019-02-14T01:23:31.839Z,16.50
2019-02-14T01:26:00.138Z,16.77
2019-02-14T01:28:28.778Z,14.93
2019-02-14T01:30:57.092Z,13.83
2019-02-14T01:33:25.410Z,13.60
2019-02-14T01:35:53.704Z,12.25
2019-02-14T01:38:22.040Z,13.37
2019-02-14T01:40:50.674Z,12.23
2019-02-14T01:43:19.055Z,12.40
2019-02-14T01:46:01.614Z,12.28
2019-02-14T01:48:29.935Z,13.48
2019-02-14T01:50:58.501Z,12.18
2019-02-14T01:53:26.830Z,12.70
2019-02-14T01:55:55.119Z,12.50
2019-02-14T01:58:23.413Z,12.40
2019-02-14T02:00:51.737Z,11.78
2019-02-14T02:03:20.039Z,12.95
2019-02-14T02:05:50.897Z,12.80
2019-02-14T02:08:19.245Z,12.98
2019-02-14T02:10:47.559Z,14.30
2019-02-14T02:13:15.857Z,13.68
2019-02-14T02:15:44.185Z,12.65
2019-02-14T02:18:12.489Z,13.13
2019-02-14T02:20:40.802Z,12.23
2019-02-14T02:23:09.096Z,12.53
2019-02-14T02:25:37.490Z,11.68
2019-02-14T02:28:05.778Z,12.33
2019-02-14T02:30:34.070Z,12.70
2019-02-14T02:33:02.400Z,12.20
2019-02-14T02:35:30.698Z,13.10
2019-02-14T02:37:59.016Z,13.70
2019-02-14T02:40:27.323Z,14.05
2019-02-14T02:42:55.641Z,12.90
2019-02-14T02:45:23.928Z,12.05
2019-02-14T02:47:52.253Z,12.70
2019-02-14T02:50:20.562Z,12.28
2019-02-14T02:52:48.903Z,12.82
2019-02-14T02:55:17.185Z,12.07
2019-02-14T02:57:45.491Z,12.50
2019-02-14T03:00:17.065Z,12.07
2019-02-14T03:02:45.384Z,12.68
2019-02-14T03:05:15.355Z,12.63
2019-02-14T03:07:43.638Z,12.87
2019-02-14T03:10:13.501Z,13.22
2019-02-14T03:12:41.791Z,12.87
2019-02-14T03:15:13.007Z,10.93
2019-02-14T03:17:41.366Z,11.30
2019-02-14T03:20:11.728Z,11.35
2019-02-14T03:22:40.027Z,11.37
2019-02-14T03:25:14.140Z,11.18
2019-02-14T03:27:42.796Z,11.20
2019-02-14T03:30:15.819Z,10.80
2019-02-14T03:32:44.454Z,10.57
2019-02-14T03:35:13.033Z,11.10
2019-02-14T03:37:41.623Z,11.20
2019-02-14T03:40:13.872Z,10.90
2019-02-14T03:42:42.830Z,10.30
2019-02-14T03:45:19.850Z,10.50
2019-02-14T03:47:48.173Z,10.13
2019-02-14T03:50:16.467Z,9.80
2019-02-14T03:52:45.114Z,10.90
2019-02-14T03:55:13.490Z,11.48
2019-02-14T03:57:41.813Z,10.30
2019-02-14T04:00:17.606Z,10.93
2019-02-14T04:02:45.922Z,10.55
2019-02-14T04:05:14.233Z,11.15
2019-02-14T04:07:42.865Z,11.12
2019-02-14T04:10:13.350Z,9.88
2019-02-14T04:12:41.689Z,10.90
2019-02-14T04:15:12.981Z,11.05
2019-02-14T04:17:41.286Z,11.10
2019-02-14T04:20:10.845Z,10.40
2019-02-14T04:22:39.148Z,11.65
2019-02-14T04:25:09.101Z,10.40
2019-02-14T04:27:37.401Z,11.00
2019-02-14T04:30:09.117Z,10.90
2019-02-14T04:32:37.443Z,10.63
2019-02-14T04:35:06.322Z,10.90
2019-02-14T04:37:34.959Z,10.58
2019-02-14T04:40:03.960Z,10.18
2019-02-14T04:42:32.264Z,11.23
2019-02-14T04:45:00.589Z,10.60
2019-02-14T04:47:28.904Z,10.55
2019-02-14T04:49:57.470Z,11.40
2019-02-14T04:52:26.059Z,10.95
2019-02-14T04:54:54.390Z,11.53
2019-02-14T04:57:23.057Z,10.60
2019-02-14T04:59:51.360Z,10.53
2019-02-14T05:02:19.652Z,11.07
2019-02-14T05:04:47.963Z,11.10
2019-02-14T05:07:16.269Z,11.70
2019-02-14T05:09:44.921Z,11.22
2019-02-14T05:12:13.233Z,12.53
2019-02-14T05:14:41.549Z,11.65
2019-02-14T05:17:10.143Z,11.35
2019-02-14T05:19:38.447Z,11.70
2019-02-14T05:22:06.766Z,11.30
2019-02-14T05:24:35.381Z,10.70
2019-02-14T05:27:03.698Z,10.40
2019-02-14T05:29:31.984Z,11.57
2019-02-14T05:32:00.282Z,10.75
2019-02-14T05:34:28.582Z,10.93
2019-02-14T05:36:56.882Z,10.95
2019-02-14T05:39:25.469Z,10.63
2019-02-14T05:41:53.743Z,10.10
2019-02-14T05:44:22.417Z,9.85
2019-02-14T05:46:50.720Z,13.60
2019-02-14T05:49:19.041Z,11.10
2019-02-14T05:51:47.355Z,11.55
2019-02-14T05:54:15.660Z,12.70
2019-02-14T05:56:43.960Z,11.65
2019-02-14T05:59:12.298Z,12.47
2019-02-14T06:01:40.590Z,12.15
2019-02-14T06:04:08.959Z,11.93
2019-02-14T06:06:37.256Z,11.20
2019-02-14T06:09:06.715Z,12.18
2019-02-14T06:11:35.303Z,11.75
2019-02-14T06:14:03.602Z,60.60
2019-02-14T06:16:31.920Z,11.83
2019-02-14T06:19:00.229Z,10.90
2019-02-14T06:21:28.560Z,10.60
2019-02-14T06:23:56.847Z,10.65
2019-02-14T06:26:25.193Z,11.40
2019-02-14T06:28:53.494Z,10.90
2019-02-14T06:31:21.824Z,12.20
2019-02-14T06:33:50.140Z,11.20
2019-02-14T06:36:18.476Z,11.40
2019-02-14T06:38:46.776Z,11.35
2019-02-14T06:41:15.085Z,11.68
2019-02-14T06:43:43.707Z,11.88
2019-02-14T06:46:12.031Z,11.30
2019-02-14T06:48:40.335Z,11.18
2019-02-14T06:51:08.718Z,12.00
2019-02-14T06:53:37.019Z,11.53
2019-02-14T06:56:05.358Z,12.20
2019-02-14T06:58:33.640Z,11.77
2019-02-14T07:01:02.262Z,12.10
2019-02-14T07:03:30.843Z,11.60
2019-02-14T07:05:59.154Z,11.90
2019-02-14T07:08:27.475Z,11.30
2019-02-14T07:10:57.616Z,11.40
2019-02-14T07:13:26.060Z,11.25
2019-02-14T07:15:54.369Z,10.88
2019-02-14T07:18:22.679Z,11.48
2019-02-14T07:20:51.335Z,10.65
2019-02-14T07:23:19.662Z,11.12
2019-02-14T07:25:47.963Z,11.00
2019-02-14T07:28:16.272Z,11.15
2019-02-14T07:30:44.573Z,10.43
2019-02-14T07:33:12.974Z,10.50
2019-02-14T07:35:41.522Z,10.10
2019-02-14T07:38:10.191Z,9.68
2019-02-14T07:40:38.735Z,9.30
2019-02-14T07:43:07.349Z,10.88
2019-02-14T07:45:35.676Z,11.20
2019-02-14T07:48:03.998Z,11.90
2019-02-14T07:50:32.589Z,10.82
2019-02-14T07:53:00.891Z,10.15
2019-02-14T07:55:29.202Z,10.50
2019-02-14T07:57:57.509Z,10.25
2019-02-14T08:00:25.837Z,10.65
2019-02-14T08:02:54.136Z,10.32
2019-02-14T08:05:22.450Z,10.10
2019-02-14T08:07:50.743Z,10.90
2019-02-14T08:10:19.858Z,10.25
2019-02-14T08:12:48.243Z,11.65
2019-02-14T08:15:16.552Z,10.77
2019-02-14T08:17:44.861Z,11.20
2019-02-14T08:20:18.024Z,10.30
2019-02-14T08:22:46.661Z,10.08
2019-02-14T08:25:14.960Z,10.00
2019-02-14T08:27:43.261Z,9.78
2019-02-14T08:30:19.334Z,9.98
2019-02-14T08:32:47.655Z,10.40
2019-02-14T08:35:16.215Z,11.20
2019-02-14T08:37:45.958Z,12.70
2019-02-14T08:40:29.660Z,11.55
2019-02-14T08:42:58.657Z,10.53
2019-02-14T08:45:27.538Z,10.20
2019-02-14T08:47:55.868Z,10.00
2019-02-14T08:50:24.168Z,10.05
2019-02-14T08:52:52.487Z,9.98
2019-02-14T08:55:20.780Z,10.15
2019-02-14T08:57:49.435Z,10.15
2019-02-14T09:00:18.249Z,10.35
2019-02-14T09:02:46.562Z,9.40
2019-02-14T09:05:17.887Z,9.70
2019-02-14T09:07:54.350Z,9.38
2019-02-14T09:10:17.173Z,9.83
2019-02-14T09:12:45.488Z,9.70
2019-02-14T09:15:14.734Z,9.60
2019-02-14T09:17:43.335Z,8.83
2019-02-14T09:20:17.163Z,8.85
2019-02-14T09:22:45.480Z,9.30
2019-02-14T09:25:14.086Z,9.25
2019-02-14T09:27:42.388Z,9.93
2019-02-14T09:30:12.325Z,9.23
2019-02-14T09:32:40.976Z,9.07
2019-02-14T09:35:10.488Z,9.30
2019-02-14T09:37:39.065Z,9.53
2019-02-14T09:40:12.859Z,8.90
2019-02-14T09:42:41.186Z,9.90
2019-02-14T09:45:12.036Z,10.10
2019-02-14T09:47:40.335Z,9.98
2019-02-14T09:50:10.971Z,10.13
2019-02-14T09:52:40.282Z,10.90
2019-02-14T09:55:10.817Z,9.53
2019-02-14T09:57:39.637Z,10.60
2019-02-14T10:00:18.842Z,9.63
2019-02-14T10:02:47.151Z,8.35
2019-02-14T10:05:16.132Z,8.83
2019-02-14T10:07:44.446Z,8.40
2019-02-14T10:10:18.393Z,8.50
2019-02-14T10:12:46.702Z,7.97
2019-02-14T10:15:15.021Z,8.18
2019-02-14T10:17:43.326Z,7.62
2019-02-14T10:20:14.616Z,7.80
2019-02-14T10:22:43.257Z,7.83
2019-02-14T10:25:12.420Z,7.00
2019-02-14T10:27:40.816Z,7.40
2019-02-14T10:30:17.835Z,6.58
2019-02-14T10:32:46.496Z,6.55
2019-02-14T10:35:14.805Z,6.15
2019-02-14T10:37:43.558Z,5.90
2019-02-14T10:40:16.228Z,6.12
2019-02-14T10:42:44.626Z,6.28
2019-02-14T10:45:17.600Z,5.80
2019-02-14T10:47:45.940Z,6.20
2019-02-14T10:50:14.565Z,6.58
2019-02-14T10:52:43.289Z,6.92
2019-02-14T10:55:13.595Z,6.55
2019-02-14T10:57:41.900Z,7.08
2019-02-14T11:00:24.308Z,6.28
2019-02-14T11:02:53.166Z,5.60
2019-02-14T11:05:21.448Z,7.22
2019-02-14T11:07:50.120Z,7.60
2019-02-14T11:10:18.405Z,7.10
2019-02-14T11:12:46.732Z,6.37
2019-02-14T11:15:24.166Z,6.20
2019-02-14T11:17:52.550Z,6.12
2019-02-14T11:20:20.853Z,6.33
2019-02-14T11:22:49.531Z,5.28
2019-02-14T11:25:26.375Z,4.50
2019-02-14T11:27:54.660Z,5.15
2019-02-14T11:30:22.970Z,4.40
2019-02-14T11:32:51.271Z,4.62
2019-02-14T11:35:19.579Z,7.50
2019-02-14T11:37:48.178Z,5.00
2019-02-14T11:40:16.608Z,5.10
2019-02-14T11:42:44.884Z,4.08
2019-02-14T11:45:18.674Z,3.92
2019-02-14T11:47:46.970Z,3.40
2019-02-14T11:50:15.265Z,3.67
2019-02-14T11:52:43.555Z,3.72
2019-02-14T11:55:12.243Z,3.80
2019-02-14T11:57:40.825Z,3.27
2019-02-14T12:00:13.974Z,4.00
2019-02-14T12:02:42.253Z,3.70
2019-02-14T12:05:10.539Z,3.42
2019-02-14T12:07:39.158Z,3.70
2019-02-14T12:10:13.361Z,3.50
2019-02-14T12:12:40.231Z,3.47
2019-02-14T12:15:11.427Z,3.67
2019-02-14T12:17:39.813Z,3.60
2019-02-14T12:20:12.875Z,4.15
2019-02-14T12:22:46.550Z,3.40
2019-02-14T12:25:19.914Z,3.10
2019-02-14T12:27:48.867Z,3.60
2019-02-14T12:30:17.241Z,3.87
2019-02-14T12:32:45.522Z,3.40
2019-02-14T12:35:13.843Z,3.02
2019-02-14T12:37:42.390Z,3.30
2019-02-14T12:40:14.621Z,3.10
2019-02-14T12:42:42.935Z,3.17
2019-02-14T12:47:44.305Z,3.17
2019-02-14T12:50:12.622Z,3.10
2019-02-14T12:52:40.914Z,3.40
2019-02-14T12:55:09.283Z,3.20
2019-02-14T12:57:37.583Z,3.10
2019-02-14T13:00:17.913Z,2.90
2019-02-14T13:02:46.208Z,3.08
2019-02-14T13:05:14.514Z,2.80
2019-02-14T13:07:42.823Z,3.05
2019-02-14T13:10:14.557Z,2.70
2019-02-14T13:12:43.039Z,2.92
2019-02-14T13:15:16.890Z,2.62
2019-02-14T13:17:45.215Z,2.83
2019-02-14T13:20:13.862Z,2.72
2019-02-14T13:22:42.180Z,2.50
2019-02-14T13:25:11.873Z,3.00
2019-02-14T13:27:40.538Z,2.85
2019-02-14T13:30:17.704Z,2.47
2019-02-14T13:32:46.065Z,2.67
2019-02-14T13:35:14.319Z,2.80
2019-02-14T13:37:42.634Z,3.00
2019-02-14T13:40:11.010Z,3.00
2019-02-14T13:42:39.598Z,2.52
2019-02-14T13:45:11.074Z,2.90
2019-02-14T13:47:39.392Z,2.75
2019-02-14T13:50:10.227Z,2.90
2019-02-14T13:52:38.538Z,2.90
2019-02-14T13:55:09.262Z,3.10
2019-02-14T13:57:37.544Z,2.80
2019-02-14T14:00:14.890Z,2.65
2019-02-14T14:02:43.191Z,3.30
2019-02-14T14:05:11.541Z,2.90
2019-02-14T14:07:40.704Z,2.85
2019-02-14T14:10:10.116Z,2.77
2019-02-14T14:12:38.397Z,2.67
2019-02-14T14:15:09.451Z,2.90
2019-02-14T14:17:37.766Z,2.47
2019-02-14T14:20:07.727Z,3.10
2019-02-14T14:22:36.064Z,3.05
2019-02-14T14:25:05.795Z,2.50
2019-02-14T14:27:34.115Z,3.02
2019-02-14T14:30:02.776Z,2.70
2019-02-14T14:32:31.107Z,2.70
2019-02-14T14:34:59.394Z,2.95
2019-02-14T14:37:27.701Z,2.30
2019-02-14T14:39:56.017Z,2.60
2019-02-14T14:42:34.852Z,2.60
2019-02-14T14:45:04.807Z,2.87
2019-02-14T14:47:33.394Z,2.40
2019-02-14T14:50:02.209Z,2.37
2019-02-14T14:52:30.517Z,2.70
2019-02-14T14:54:59.144Z,2.80
2019-02-14T14:57:27.480Z,2.70
2019-02-14T14:59:56.135Z,2.58
2019-02-14T15:02:24.611Z,2.47
2019-02-14T15:04:52.905Z,2.30
2019-02-14T15:07:21.547Z,2.80
2019-02-14T15:09:57.199Z,2.20
2019-02-14T15:12:19.895Z,2.20
2019-02-14T15:14:48.450Z,2.35
2019-02-14T15:17:16.753Z,2.60
2019-02-14T15:19:45.079Z,2.50
2019-02-14T15:22:13.371Z,2.52
2019-02-14T15:24:41.674Z,2.30
2019-02-14T15:27:09.963Z,2.60
2019-02-14T15:29:38.587Z,3.20
2019-02-14T15:32:07.169Z,2.40
2019-02-14T15:34:35.495Z,2.40
2019-02-14T15:37:03.794Z,2.60
2019-02-14T15:39:32.113Z,2.60
2019-02-14T15:42:00.419Z,2.65
2019-02-14T15:44:28.730Z,2.90
2019-02-14T15:46:57.034Z,2.83
2019-02-14T15:49:25.513Z,2.50
2019-02-14T15:51:53.831Z,2.75
2019-02-14T15:54:22.114Z,3.87
2019-02-14T15:56:51.417Z,2.72
2019-02-14T15:59:21.048Z,3.00
2019-02-14T16:01:49.864Z,2.90
2019-02-14T16:04:18.170Z,2.60
2019-02-14T16:06:46.492Z,3.10
2019-02-14T16:09:16.526Z,3.20
2019-02-14T16:11:44.925Z,3.35
2019-02-14T16:14:13.231Z,3.50
2019-02-14T16:16:43.285Z,3.10
2019-02-14T16:19:13.152Z,3.27
2019-02-14T16:21:41.470Z,3.25
2019-02-14T16:24:09.806Z,3.47
2019-02-14T16:26:38.895Z,9.73
2019-02-14T16:29:07.563Z,6.30
2019-02-14T16:31:36.491Z,10.40
2019-02-14T16:34:04.809Z,6.67
2019-02-14T16:36:33.412Z,7.83
2019-02-14T16:39:02.209Z,11.80
2019-02-14T16:41:30.497Z,14.45
2019-02-14T16:43:58.805Z,7.27
2019-02-14T16:46:27.107Z,6.55
2019-02-14T16:48:55.450Z,7.28
2019-02-14T16:51:23.986Z,6.50
2019-02-14T16:53:52.295Z,6.50
2019-02-14T16:56:20.590Z,6.10
2019-02-14T16:58:48.947Z,6.50
2019-02-14T17:01:17.357Z,7.03
2019-02-14T17:03:45.641Z,6.00
2019-02-14T17:06:13.967Z,6.87
2019-02-14T17:08:42.255Z,7.60
2019-02-14T17:11:10.581Z,6.58
2019-02-14T17:13:38.881Z,8.00
2019-02-14T17:16:07.186Z,6.95
2019-02-14T17:18:35.755Z,7.00
2019-02-14T17:21:04.554Z,6.60
2019-02-14T17:23:32.844Z,7.87
2019-02-14T17:26:01.160Z,6.10
2019-02-14T17:28:29.777Z,8.55
2019-02-14T17:30:58.354Z,8.18
2019-02-14T17:33:26.688Z,9.75
2019-02-14T17:35:55.425Z,9.55
2019-02-14T17:38:23.737Z,10.48
2019-02-14T17:40:52.028Z,10.20
2019-02-14T17:43:20.687Z,9.75
2019-02-14T17:45:48.985Z,9.70
2019-02-14T17:48:17.294Z,8.60
2019-02-14T17:50:45.579Z,7.85
2019-02-14T17:53:13.921Z,8.20
2019-02-14T17:55:42.215Z,8.18
2019-02-14T17:58:10.532Z,6.97
2019-02-14T18:00:40.702Z,6.62
2019-02-14T18:03:09.001Z,6.55
2019-02-14T18:05:37.624Z,7.00
2019-02-14T18:08:05.918Z,7.70
2019-02-14T18:10:34.245Z,7.63
2019-02-14T18:13:02.864Z,8.25
2019-02-14T18:15:31.178Z,8.45
2019-02-14T18:17:59.816Z,7.95
2019-02-14T18:20:28.122Z,7.30
2019-02-14T18:22:56.408Z,7.40
2019-02-14T18:25:25.061Z,7.85
2019-02-14T18:27:53.456Z,6.45
2019-02-14T18:30:21.763Z,7.30
2019-02-14T18:32:50.398Z,6.70
2019-02-14T18:35:18.680Z,6.90
2019-02-14T18:37:47.008Z,7.90
2019-02-14T18:40:15.372Z,9.08
2019-02-14T18:42:45.844Z,10.70
2019-02-14T18:45:15.577Z,10.32
2019-02-14T18:47:43.904Z,10.53
2019-02-14T18:50:13.274Z,10.50
2019-02-14T18:52:41.582Z,11.83
2019-02-14T18:55:11.041Z,12.55
2019-02-14T18:57:39.365Z,13.53
2019-02-14T19:00:16.153Z,12.95
2019-02-14T19:02:44.446Z,11.78
2019-02-14T19:05:13.134Z,12.88
2019-02-14T19:07:41.561Z,11.68
2019-02-14T19:10:12.888Z,11.45
2019-02-14T19:12:41.547Z,12.60
2019-02-14T19:15:11.710Z,11.20
2019-02-14T19:17:40.017Z,14.20
2019-02-14T19:20:12.418Z,14.13
2019-02-14T19:22:41.863Z,10.30
2019-02-14T19:25:10.356Z,9.63
2019-02-14T19:27:38.671Z,10.35
2019-02-14T19:30:11.935Z,10.13
2019-02-14T19:32:40.311Z,13.08
2019-02-14T19:35:09.396Z,15.90
2019-02-14T19:37:37.707Z,14.10
2019-02-14T19:40:08.047Z,13.98
2019-02-14T19:42:36.619Z,14.30
2019-02-14T19:45:10.198Z,9.93
2019-02-14T19:47:38.515Z,9.53
2019-02-14T19:50:09.471Z,10.40
2019-02-14T19:52:37.757Z,9.60
2019-02-14T19:55:08.509Z,8.13
2019-02-14T19:57:36.885Z,7.60
2019-02-14T20:00:08.359Z,8.20
2019-02-14T20:02:36.670Z,8.15
2019-02-14T20:05:06.210Z,8.90
2019-02-14T20:07:34.693Z,8.70
2019-02-14T20:10:03.353Z,8.60
2019-02-14T20:12:31.936Z,9.43
2019-02-14T20:15:00.435Z,9.10
2019-02-14T20:17:29.212Z,9.00
2019-02-14T20:19:57.657Z,9.35
2019-02-14T20:22:25.999Z,9.20
2019-02-14T20:24:55.815Z,9.05
2019-02-14T20:27:24.441Z,9.47
2019-02-14T20:29:52.770Z,9.20
2019-02-14T20:32:21.080Z,8.70
2019-02-14T20:34:49.651Z,8.97
2019-02-14T20:37:18.275Z,8.90
2019-02-14T20:39:46.578Z,8.80
2019-02-14T20:42:14.883Z,9.13
2019-02-14T20:44:43.193Z,9.08
2019-02-14T20:47:11.484Z,9.25
2019-02-14T20:49:39.807Z,10.05
2019-02-14T20:52:08.441Z,9.43
2019-02-14T20:54:37.133Z,10.45
2019-02-14T20:57:05.416Z,11.15
2019-02-14T20:59:33.982Z,11.80
2019-02-14T21:02:02.309Z,12.00
2019-02-14T21:04:30.621Z,13.32
2019-02-14T21:06:58.977Z,12.10
2019-02-14T21:09:27.292Z,13.15
2019-02-14T21:11:55.617Z,14.10
2019-02-14T21:14:24.250Z,11.83
2019-02-14T21:16:52.590Z,12.33
2019-02-14T21:19:20.884Z,12.60
2019-02-14T21:21:49.191Z,11.83
2019-02-14T21:24:17.508Z,12.07
2019-02-14T21:26:45.828Z,11.80
2019-02-14T21:29:14.451Z,10.60
2019-02-14T21:31:42.754Z,8.23
2019-02-14T21:34:11.030Z,7.90
2019-02-14T21:36:39.345Z,7.62
2019-02-14T21:39:07.659Z,7.17
2019-02-14T21:41:36.069Z,7.30
2019-02-14T21:44:04.441Z,7.22
2019-02-14T21:46:32.727Z,8.70
2019-02-14T21:49:01.099Z,11.00
2019-02-14T21:51:29.406Z,11.05
2019-02-14T21:53:57.725Z,11.00
2019-02-14T21:56:26.032Z,11.05
2019-02-14T21:58:54.346Z,9.98
2019-02-14T22:01:24.512Z,10.10
2019-02-14T22:03:52.830Z,8.50
2019-02-14T22:06:21.145Z,8.20
2019-02-14T22:08:49.485Z,9.60
2019-02-14T22:11:17.793Z,8.70
2019-02-14T22:13:46.128Z,9.10
2019-02-14T22:16:14.755Z,7.80
2019-02-14T22:18:43.327Z,8.10
2019-02-14T22:21:12.014Z,8.00
2019-02-14T22:23:40.612Z,8.43
2019-02-14T22:26:08.931Z,7.43
2019-02-14T22:28:37.231Z,8.05
2019-02-14T22:31:05.587Z,7.35
2019-02-14T22:33:34.206Z,7.60
2019-02-14T22:36:02.520Z,6.67
2019-02-14T22:38:30.822Z,7.08
2019-02-14T22:40:59.131Z,6.50
2019-02-14T22:43:27.441Z,6.37
2019-02-14T22:45:55.758Z,6.40
2019-02-14T22:48:24.061Z,6.20
2019-02-14T22:50:52.371Z,6.30
2019-02-14T22:53:20.927Z,7.17
2019-02-14T22:55:49.261Z,6.78
2019-02-14T22:58:17.558Z,9.60
2019-02-14T23:00:50.050Z,10.88
2019-02-14T23:03:18.353Z,16.57
2019-02-14T23:05:47.030Z,11.78
2019-02-14T23:08:15.331Z,9.43
2019-02-14T23:10:43.645Z,7.70
2019-02-14T23:13:11.965Z,9.17
2019-02-14T23:15:40.544Z,8.60
2019-02-14T23:18:08.857Z,6.90
2019-02-14T23:20:37.168Z,7.58
2019-02-14T23:23:05.479Z,6.95
2019-02-14T23:25:33.787Z,7.30
2019-02-14T23:28:02.089Z,6.70
2019-02-14T23:30:30.391Z,5.87
2019-02-14T23:32:58.994Z,6.03
2019-02-14T23:35:27.294Z,5.87
2019-02-14T23:37:55.607Z,6.03
2019-02-14T23:40:23.908Z,5.58
2019-02-14T23:42:52.220Z,5.92
2019-02-14T23:45:20.518Z,5.55
2019-02-14T23:47:48.810Z,5.62
2019-02-14T23:50:17.195Z,5.30
2019-02-14T23:52:45.498Z,7.20
2019-02-14T23:55:13.817Z,7.10
2019-02-14T23:57:42.470Z,5.50
